Terminal Aerodrome Forecast
Issued by NWS

Current Version | Previous Version | Graphics & Text | Print | Product List | Glossary On
Versions: 1 2 3 4 5 6 7 8 9 10 11 12 13 14 15 16 17 18 19 20 21
000
FTUS41 KILN 242000 AAA
TAFLCK
TAF AMD
KLCK 242037Z 2421/2518 27010KT P6SM SCT250
     FM242300 VRB02KT P6SM BKN100 OVC250
     FM250400 08008KT P6SM OVC080=

USA.gov is the U.S. government's official web portal to all federal, state and local government web resources and services.